Time;durP1;ratioP1;P1;durP2;ratioP2;P2;SDS_P1;SDS_P2;PMS_P1;PMS_P2;Temp;Humidity;BMP_temperature;BMP_pressure;BME280_temperature;BME280_humidity;BME280_pressure;Samples;Min_cycle;Max_cycle;Signal;HPM_P1;HPM_P2
2022/05/24 13:48:24;;;;;;;0.45;0.40;;;24.40;47.70;;;;;;5070862;28;20092;-59
2022/05/24 13:50:51;;;;;;;0.63;0.28;;;24.40;47.20;;;;;;5070725;28;20090;-61
2022/05/24 13:53:38;;;;;;;1.33;0.40;;;24.40;47.20;;;;;;5070221;28;20080;-61
2022/05/24 13:56:08;;;;;;;0.40;0.40;;;24.40;47.20;;;;;;5070835;28;20028;-59
2022/05/24 13:58:39;;;;;;;0.80;0.50;;;24.50;47.00;;;;;;5075266;28;20802;-60
2022/05/24 14:01:24;;;;;;;0.85;0.50;;;24.50;46.90;;;;;;5074191;28;20043;-61
2022/05/24 14:14:03;;;;;;;0.60;0.40;;;24.60;46.30;;;;;;5065900;28;20091;-62
2022/05/24 14:16:32;;;;;;;0.68;0.43;;;24.70;46.00;;;;;;5075216;28;20537;-60
2022/05/24 14:18:57;;;;;;;0.40;0.35;;;24.70;46.10;;;;;;5075974;28;20043;-62
2022/05/24 14:21:27;;;;;;;0.50;0.50;;;24.70;46.30;;;;;;5077305;28;20035;-61
2022/05/24 14:23:54;;;;;;;0.68;0.40;;;24.70;46.60;;;;;;5074958;28;20089;-63
2022/05/24 14:26:20;;;;;;;0.52;0.40;;;24.80;46.60;;;;;;5054145;28;20023;-61
2022/05/24 14:28:46;;;;;;;0.30;0.30;;;24.80;46.70;;;;;;5075329;28;20698;-61
2022/05/24 14:31:13;;;;;;;1.55;0.43;;;24.80;46.80;;;;;;5074688;28;20051;-61
2022/05/24 14:36:43;;;;;;;0.40;0.40;;;24.90;47.00;;;;;;5076478;28;20074;-61
2022/05/24 14:39:10;;;;;;;1.55;0.60;;;24.90;47.20;;;;;;5078703;28;20450;-60
2022/05/24 14:41:38;;;;;;;0.43;0.40;;;25.00;47.20;;;;;;5078006;28;20027;-61
2022/05/24 14:44:05;;;;;;;0.50;0.50;;;25.00;47.30;;;;;;5078990;28;20050;-59
2022/05/24 14:46:35;;;;;;;0.45;0.40;;;25.00;47.30;;;;;;5078222;28;20031;-61
2022/05/24 14:49:03;;;;;;;0.43;0.40;;;25.00;47.30;;;;;;5077899;28;20042;-61
2022/05/24 14:51:47;;;;;;;0.35;0.35;;;25.00;47.30;;;;;;5077541;28;20737;-61
2022/05/24 14:54:14;;;;;;;0.50;0.50;;;25.10;47.30;;;;;;5077450;28;20036;-60
2022/05/24 14:56:40;;;;;;;0.82;0.40;;;25.10;47.30;;;;;;5075953;28;20684;-61
2022/05/24 14:59:08;;;;;;;2.95;0.45;;;25.20;47.40;;;;;;5078153;28;20035;-61
2022/05/24 15:01:34;;;;;;;0.50;0.40;;;25.20;47.40;;;;;;5075747;28;20063;-58
2022/05/24 15:04:00;;;;;;;0.65;0.40;;;25.20;47.50;;;;;;5078520;28;20244;-61
2022/05/24 15:06:26;;;;;;;1.08;0.40;;;25.20;47.50;;;;;;5077061;28;20046;-62
2022/05/24 15:17:43;;;;;;;0.88;0.50;;;25.40;47.70;;;;;;5066414;28;20071;-62
2022/05/24 15:20:27;;;;;;;1.13;0.30;;;25.30;47.60;;;;;;5076662;28;20115;-61
2022/05/24 15:23:21;;;;;;;0.32;0.20;;;25.30;47.60;;;;;;5077780;28;20028;-61
2022/05/24 15:25:48;;;;;;;0.40;0.40;;;25.40;47.60;;;;;;5072463;28;20047;-62
2022/05/24 15:28:15;;;;;;;0.25;0.22;;;25.40;47.60;;;;;;5078161;28;20057;-61
2022/05/24 15:30:42;;;;;;;0.43;0.40;;;25.40;47.60;;;;;;5073839;28;20035;-61
2022/05/24 15:33:08;;;;;;;0.88;0.40;;;25.40;47.60;;;;;;5079475;28;20047;-61
2022/05/24 15:35:35;;;;;;;0.80;0.40;;;25.40;47.60;;;;;;5078760;28;20484;-62
2022/05/24 15:38:01;;;;;;;0.60;0.30;;;25.50;47.60;;;;;;5080609;28;20020;-61
2022/05/24 15:40:28;;;;;;;1.25;0.40;;;25.50;47.70;;;;;;5076846;28;20565;-61
2022/05/24 15:42:58;;;;;;;0.85;0.40;;;25.60;47.70;;;;;;5074489;28;20100;-60
2022/05/24 15:45:24;;;;;;;0.70;0.40;;;25.60;47.50;;;;;;5076405;28;20112;-61
2022/05/24 15:47:51;;;;;;;1.45;0.47;;;25.60;47.50;;;;;;5079229;28;20029;-61
2022/05/24 15:50:18;;;;;;;0.95;0.60;;;25.60;47.50;;;;;;5080178;28;20036;-59
2022/05/24 15:52:43;;;;;;;0.73;0.40;;;25.70;47.50;;;;;;5078340;28;21157;-62
2022/05/24 15:55:11;;;;;;;0.52;0.40;;;25.70;47.60;;;;;;5075470;28;20031;-61
2022/05/24 15:57:38;;;;;;;0.77;0.40;;;25.70;47.60;;;;;;5076677;28;20027;-61
2022/05/24 16:00:05;;;;;;;0.45;0.40;;;25.70;47.70;;;;;;5056906;28;20035;-61
2022/05/24 16:02:31;;;;;;;0.68;0.40;;;25.70;47.80;;;;;;5075941;28;20032;-61
2022/05/24 16:10:26;;;;;;;1.00;0.57;;;25.70;46.00;;;;;;5075731;28;20066;-61
2022/05/24 16:12:54;;;;;;;1.20;0.50;;;25.70;45.20;;;;;;5076174;28;20119;-62
2022/05/24 16:15:22;;;;;;;1.33;0.52;;;25.70;45.10;;;;;;5076768;28;20161;-60
2022/05/24 16:17:54;;;;;;;0.55;0.40;;;25.80;45.20;;;;;;5075723;28;20028;-61
2022/05/24 16:20:20;;;;;;;0.90;0.60;;;25.80;45.00;;;;;;5073589;28;20020;-62
2022/05/24 16:22:48;;;;;;;0.57;0.43;;;25.80;45.10;;;;;;5075813;28;20032;-61
2022/05/24 16:25:16;;;;;;;0.40;0.40;;;25.70;44.90;;;;;;5074105;28;20023;-62
2022/05/24 16:27:42;;;;;;;1.35;0.50;;;25.80;45.00;;;;;;5072427;28;20058;-61
2022/05/24 16:30:08;;;;;;;1.15;0.50;;;25.80;45.10;;;;;;5075648;28;20065;-59
2022/05/24 16:32:37;;;;;;;1.10;0.60;;;25.80;45.10;;;;;;5072580;28;20665;-60
2022/05/24 16:35:04;;;;;;;1.55;0.50;;;25.80;45.10;;;;;;5074332;28;20020;-60
2022/05/24 16:37:30;;;;;;;0.70;0.60;;;25.80;45.00;;;;;;5076852;28;20036;-60
2022/05/24 16:39:56;;;;;;;0.35;0.35;;;25.80;44.90;;;;;;5073267;28;20040;-59
2022/05/24 16:42:22;;;;;;;0.40;0.38;;;25.70;44.90;;;;;;5073899;28;20142;-61
2022/05/24 16:44:47;;;;;;;0.77;0.50;;;25.70;44.80;;;;;;5074589;28;20069;-61
2022/05/24 16:47:13;;;;;;;1.15;0.52;;;25.70;44.80;;;;;;5073294;28;20027;-61
2022/05/24 16:49:39;;;;;;;1.13;0.65;;;25.70;44.80;;;;;;5074491;28;20118;-62
2022/05/24 16:52:06;;;;;;;0.55;0.50;;;25.70;44.90;;;;;;5062915;28;20460;-58
2022/05/24 17:00:10;;;;;;;1.70;0.88;;;25.70;44.90;;;;;;5075062;28;20074;-62
2022/05/24 17:03:00;;;;;;;0.32;0.30;;;25.60;44.80;;;;;;5072478;28;20034;-62
2022/05/24 17:05:28;;;;;;;0.93;0.60;;;25.60;44.80;;;;;;5074424;28;20041;-61
2022/05/24 17:07:57;;;;;;;0.63;0.50;;;25.60;44.90;;;;;;5073524;28;20047;-61
2022/05/24 17:30:37;;;;;;;0.40;0.40;;;25.50;47.20;;;;;;5073508;27;20051;-60
2022/05/24 17:33:16;;;;;;;0.73;0.50;;;25.60;47.20;;;;;;5077642;28;20050;-61
2022/05/24 17:35:46;;;;;;;0.50;0.50;;;25.60;47.30;;;;;;5081665;27;20605;-62
2022/05/24 17:38:17;;;;;;;0.65;0.40;;;25.60;47.50;;;;;;5086702;28;20034;-61
2022/05/24 17:40:57;;;;;;;0.40;0.40;;;25.60;47.40;;;;;;5082264;28;20024;-60
2022/05/24 17:43:31;;;;;;;1.02;0.40;;;25.60;47.60;;;;;;5082153;28;20047;-60
2022/05/24 17:46:03;;;;;;;0.60;0.60;;;25.60;47.60;;;;;;5083115;28;20028;-60
2022/05/24 17:48:34;;;;;;;0.85;0.50;;;25.60;47.60;;;;;;5077452;28;20198;-61
2022/05/24 17:51:01;;;;;;;0.60;0.40;;;25.60;47.60;;;;;;5083963;28;20120;-61
2022/05/24 17:53:30;;;;;;;1.60;0.50;;;25.70;47.60;;;;;;5083991;28;20027;-59
2022/05/24 17:55:56;;;;;;;0.75;0.50;;;25.70;47.70;;;;;;5068776;28;20477;-60
2022/05/24 17:58:24;;;;;;;0.50;0.50;;;25.70;47.70;;;;;;5072203;28;20036;-61
2022/05/24 18:00:52;;;;;;;0.60;0.40;;;25.70;47.70;;;;;;5074116;28;20212;-61
2022/05/24 18:03:20;;;;;;;0.82;0.55;;;25.70;47.70;;;;;;5072245;28;21069;-64
2022/05/24 18:05:47;;;;;;;0.55;0.50;;;25.70;47.60;;;;;;5072876;28;20110;-64
2022/05/24 18:08:13;;;;;;;1.35;0.40;;;25.80;47.80;;;;;;5071455;28;20035;-63
2022/05/24 18:10:40;;;;;;;1.00;0.50;;;25.80;47.70;;;;;;5070335;28;20020;-63
2022/05/24 18:13:08;;;;;;;0.85;0.60;;;25.80;47.70;;;;;;5071260;28;20032;-63
2022/05/24 18:15:34;;;;;;;0.93;0.50;;;25.80;47.60;;;;;;5072517;28;20031;-62
2022/05/24 18:18:03;;;;;;;0.63;0.50;;;25.90;47.70;;;;;;5073428;28;20654;-62
2022/05/24 18:20:32;;;;;;;0.60;0.50;;;25.90;47.70;;;;;;5085539;28;20019;-64
2022/05/24 18:23:13;;;;;;;1.58;0.60;;;25.90;47.70;;;;;;5078852;28;20289;-64
2022/05/24 18:34:09;;;;;;;0.75;0.50;;;26.00;47.60;;;;;;5069831;28;20834;-62
2022/05/24 18:36:40;;;;;;;0.45;0.40;;;26.00;47.70;;;;;;5071360;28;20083;-63
2022/05/24 18:39:07;;;;;;;1.10;0.50;;;26.00;47.60;;;;;;5071315;28;20019;-63
2022/05/24 18:41:34;;;;;;;0.93;0.52;;;26.00;47.60;;;;;;5068706;28;20081;-64
2022/05/24 18:44:00;;;;;;;1.50;0.50;;;26.00;47.50;;;;;;5069215;28;20016;-64
2022/05/24 18:46:26;;;;;;;0.60;0.40;;;26.00;47.50;;;;;;5069930;28;20750;-63
2022/05/24 18:48:53;;;;;;;0.45;0.40;;;26.00;47.50;;;;;;5070898;28;20455;-65
2022/05/24 18:51:19;;;;;;;0.77;0.40;;;26.00;47.50;;;;;;5070361;28;20482;-63
2022/05/24 18:53:45;;;;;;;0.60;0.52;;;26.00;47.40;;;;;;5071239;28;20023;-62
2022/05/24 18:56:11;;;;;;;0.63;0.50;;;26.00;47.30;;;;;;5067894;28;20058;-64
2022/05/24 18:58:38;;;;;;;1.63;0.57;;;26.10;47.50;;;;;;5070158;28;20027;-63
2022/05/24 19:01:05;;;;;;;0.47;0.47;;;26.10;47.30;;;;;;5074708;28;21115;-63
2022/05/24 19:03:31;;;;;;;0.68;0.45;;;26.10;47.30;;;;;;5075256;28;20027;-62
2022/05/24 19:05:57;;;;;;;0.40;0.40;;;26.10;47.30;;;;;;5075054;28;20474;-62
2022/05/24 19:08:24;;;;;;;0.40;0.40;;;26.10;47.30;;;;;;5056065;28;20180;-63
2022/05/24 19:10:51;;;;;;;1.02;0.57;;;26.10;47.20;;;;;;5071942;28;20043;-64
2022/05/24 19:13:17;;;;;;;0.88;0.43;;;26.10;47.20;;;;;;5069766;28;20150;-63
2022/05/24 19:15:42;;;;;;;1.10;0.40;;;26.10;47.20;;;;;;5051512;28;20589;-63
2022/05/24 19:18:09;;;;;;;0.85;0.40;;;26.10;47.20;;;;;;5072298;28;20686;-62
2022/05/24 19:20:35;;;;;;;0.50;0.50;;;26.10;47.20;;;;;;5073256;28;20135;-62
2022/05/24 19:23:01;;;;;;;0.45;0.40;;;26.10;47.20;;;;;;5076656;28;20064;-63
2022/05/24 19:25:27;;;;;;;0.75;0.60;;;26.10;47.20;;;;;;5072116;28;20504;-64
2022/05/24 19:27:54;;;;;;;0.63;0.40;;;26.20;47.30;;;;;;5073137;28;20424;-64
2022/05/24 19:30:22;;;;;;;0.50;0.45;;;26.20;47.50;;;;;;5072303;28;20039;-63
2022/05/24 19:32:48;;;;;;;0.93;0.50;;;26.20;47.40;;;;;;5074728;28;20032;-63
2022/05/24 19:35:14;;;;;;;0.50;0.40;;;26.20;47.40;;;;;;5075032;28;20138;-63
2022/05/24 19:37:40;;;;;;;0.77;0.50;;;26.20;47.40;;;;;;5075125;28;21166;-64
2022/05/24 19:42:52;;;;;;;0.45;0.45;;;26.20;47.70;;;;;;5072871;28;20047;-64
2022/05/24 19:45:18;;;;;;;0.55;0.43;;;26.20;47.40;;;;;;5072446;28;20035;-64
2022/05/24 19:47:44;;;;;;;0.60;0.50;;;26.20;47.40;;;;;;5065198;28;20093;-64
2022/05/24 19:50:13;;;;;;;0.82;0.52;;;26.20;47.40;;;;;;5072954;28;20028;-63
2022/05/24 19:52:39;;;;;;;0.98;0.57;;;26.20;47.30;;;;;;5073173;28;20032;-62
2022/05/24 19:55:06;;;;;;;0.55;0.50;;;26.30;47.50;;;;;;5072580;28;20036;-62
2022/05/24 19:57:33;;;;;;;0.50;0.50;;;26.30;47.40;;;;;;5068504;28;20048;-64
2022/05/24 20:00:01;;;;;;;0.40;0.40;;;26.30;47.40;;;;;;5072860;28;20047;-64
2022/05/24 20:02:28;;;;;;;0.60;0.50;;;26.30;47.40;;;;;;5060574;28;20043;-62
2022/05/24 20:04:53;;;;;;;0.77;0.50;;;26.30;47.40;;;;;;5072058;28;20023;-64
2022/05/24 20:07:20;;;;;;;0.63;0.50;;;26.30;47.50;;;;;;5071362;28;20024;-63
2022/05/24 20:09:46;;;;;;;0.60;0.50;;;26.30;47.40;;;;;;5053433;28;20118;-64
2022/05/24 20:12:13;;;;;;;0.77;0.45;;;26.30;47.40;;;;;;5068333;28;20736;-62
2022/05/24 20:14:40;;;;;;;0.63;0.50;;;26.30;47.40;;;;;;5071391;28;20076;-64
2022/05/24 20:17:09;;;;;;;0.80;0.60;;;26.40;47.40;;;;;;5070718;28;20035;-62
2022/05/24 20:19:38;;;;;;;0.60;0.50;;;26.30;47.30;;;;;;5070907;28;20063;-62
2022/05/24 20:22:05;;;;;;;0.40;0.40;;;26.40;47.50;;;;;;5072242;28;20093;-60
2022/05/24 20:24:34;;;;;;;1.58;0.52;;;26.40;47.50;;;;;;5071053;28;20035;-60
2022/05/24 20:27:01;;;;;;;1.10;0.50;;;26.40;47.40;;;;;;5068897;28;20803;-64
2022/05/24 20:29:27;;;;;;;0.52;0.50;;;26.40;47.40;;;;;;5070648;28;20678;-61
2022/05/24 20:31:53;;;;;;;1.33;0.50;;;26.40;47.40;;;;;;5068819;28;20765;-62
2022/05/24 20:34:19;;;;;;;0.60;0.50;;;26.40;47.50;;;;;;5068327;28;20024;-64
2022/05/24 20:36:45;;;;;;;1.30;0.68;;;26.40;47.50;;;;;;5069977;28;20089;-64
2022/05/24 20:39:11;;;;;;;0.43;0.40;;;26.40;47.50;;;;;;5077605;28;20395;-64
2022/05/24 20:41:38;;;;;;;0.50;0.40;;;26.40;47.50;;;;;;5073393;28;20028;-62
2022/05/24 20:44:04;;;;;;;1.55;0.50;;;26.40;47.50;;;;;;5076301;28;20035;-62
2022/05/24 20:46:30;;;;;;;0.60;0.50;;;26.40;47.40;;;;;;5072359;28;20028;-62
2022/05/24 20:48:56;;;;;;;0.85;0.50;;;26.40;47.40;;;;;;5073090;28;20024;-64
2022/05/24 20:51:41;;;;;;;0.57;0.45;;;26.50;47.40;;;;;;5071223;28;20040;-62
2022/05/24 20:54:07;;;;;;;0.93;0.50;;;26.50;47.60;;;;;;5074150;28;20067;-62
2022/05/24 20:56:33;;;;;;;0.90;0.50;;;26.50;47.30;;;;;;5071779;28;20829;-61
2022/05/24 20:58:59;;;;;;;0.73;0.40;;;26.50;47.40;;;;;;5071982;28;20125;-62
2022/05/24 21:01:25;;;;;;;0.82;0.57;;;26.40;47.40;;;;;;5070076;28;20043;-62
2022/05/24 21:03:51;;;;;;;0.90;0.60;;;26.40;47.40;;;;;;5070057;28;20059;-62
2022/05/24 21:06:17;;;;;;;0.55;0.50;;;26.40;47.30;;;;;;5070092;28;20035;-62
2022/05/24 21:08:43;;;;;;;0.75;0.45;;;26.40;47.40;;;;;;5071821;28;20379;-62
2022/05/24 21:11:09;;;;;;;0.73;0.50;;;26.40;47.30;;;;;;5069625;28;20051;-62
2022/05/24 21:13:34;;;;;;;1.08;0.60;;;26.40;47.40;;;;;;5071464;28;20716;-61
2022/05/24 21:16:01;;;;;;;0.50;0.50;;;26.40;47.40;;;;;;5070995;28;21218;-61
2022/05/24 21:18:27;;;;;;;1.13;0.50;;;26.40;47.50;;;;;;5072494;28;20039;-60
2022/05/24 21:20:53;;;;;;;0.85;0.60;;;26.30;47.40;;;;;;5071459;28;20682;-62
2022/05/24 21:28:53;;;;;;;0.47;0.47;;;26.30;47.30;;;;;;5072599;28;20605;-60
2022/05/24 21:31:19;;;;;;;1.15;0.60;;;26.30;47.40;;;;;;5071160;28;20363;-64
2022/05/24 21:33:45;;;;;;;0.60;0.40;;;26.30;47.90;;;;;;5070326;28;20027;-64
2022/05/24 21:36:11;;;;;;;0.63;0.50;;;26.30;47.40;;;;;;5071997;27;20043;-63
2022/05/24 21:38:38;;;;;;;0.82;0.60;;;26.30;47.40;;;;;;5070075;28;20626;-64
2022/05/24 21:41:05;;;;;;;0.43;0.43;;;26.20;47.40;;;;;;5069522;28;20388;-62
2022/05/24 21:43:31;;;;;;;1.17;0.57;;;26.20;47.40;;;;;;5072276;28;20035;-62
2022/05/24 21:45:57;;;;;;;0.50;0.45;;;26.20;47.40;;;;;;5071382;28;20028;-63
2022/05/24 21:48:29;;;;;;;0.73;0.40;;;26.20;47.40;;;;;;5070767;28;20141;-61
2022/05/24 21:50:57;;;;;;;0.75;0.52;;;26.20;47.40;;;;;;5068866;28;20064;-65
2022/05/24 21:53:23;;;;;;;0.63;0.40;;;26.20;47.40;;;;;;5069098;28;20116;-62
2022/05/24 21:55:50;;;;;;;0.60;0.50;;;26.10;47.40;;;;;;5070406;28;20039;-62
2022/05/24 21:58:16;;;;;;;1.00;0.52;;;26.10;47.50;;;;;;5071307;28;20024;-61
2022/05/24 22:00:50;;;;;;;0.80;0.50;;;26.10;47.50;;;;;;5069006;28;20036;-62
2022/05/24 22:03:20;;;;;;;1.40;0.40;;;26.10;47.50;;;;;;5070483;28;20028;-63
2022/05/24 22:05:46;;;;;;;0.60;0.40;;;26.00;47.50;;;;;;5061688;28;20031;-62
2022/05/24 22:08:13;;;;;;;0.68;0.45;;;26.00;47.50;;;;;;5071143;28;20031;-62
2022/05/24 22:10:39;;;;;;;0.88;0.50;;;26.00;47.50;;;;;;5070393;28;20074;-63
2022/05/24 22:13:06;;;;;;;0.98;0.43;;;26.00;48.10;;;;;;5069002;28;21007;-62
2022/05/24 22:15:32;;;;;;;1.05;0.85;;;25.90;47.50;;;;;;5071693;28;20064;-62
2022/05/24 22:18:00;;;;;;;0.68;0.40;;;25.90;47.50;;;;;;5074007;28;20070;-62
2022/05/24 22:20:27;;;;;;;0.43;0.43;;;25.90;47.50;;;;;;5073145;28;20514;-61
2022/05/24 22:22:54;;;;;;;0.60;0.50;;;25.90;47.50;;;;;;5074845;28;20654;-61
2022/05/24 22:25:19;;;;;;;0.93;0.40;;;25.90;47.60;;;;;;5072936;28;20024;-63
2022/05/24 22:27:45;;;;;;;0.40;0.40;;;25.90;47.60;;;;;;5074596;28;20050;-59
2022/05/24 22:30:11;;;;;;;0.57;0.47;;;25.80;48.10;;;;;;5074983;28;20040;-62
2022/05/24 22:32:37;;;;;;;0.50;0.45;;;25.80;47.60;;;;;;5054437;28;20830;-62
2022/05/24 22:35:04;;;;;;;0.55;0.55;;;25.80;47.70;;;;;;5073590;28;20032;-62
2022/05/24 22:37:29;;;;;;;0.75;0.40;;;25.80;47.70;;;;;;5068544;28;20028;-61
2022/05/24 22:39:56;;;;;;;0.85;0.50;;;25.80;47.70;;;;;;5073225;28;20024;-62
2022/05/24 22:42:22;;;;;;;0.80;0.50;;;25.70;47.70;;;;;;5073517;28;20032;-62
2022/05/24 22:44:59;;;;;;;0.32;0.32;;;25.70;47.70;;;;;;5075451;28;20402;-62
2022/05/24 22:47:28;;;;;;;0.55;0.40;;;25.70;47.70;;;;;;5073880;28;20039;-62
2022/05/24 22:49:54;;;;;;;1.13;0.50;;;25.70;47.80;;;;;;5073757;28;20032;-61
2022/05/24 22:52:20;;;;;;;0.40;0.40;;;25.70;47.80;;;;;;5073935;28;20059;-62
2022/05/24 22:54:46;;;;;;;1.08;0.70;;;25.70;48.40;;;;;;5075940;28;20066;-60
2022/05/24 22:57:12;;;;;;;0.40;0.40;;;25.60;47.80;;;;;;5077944;28;20052;-63
2022/05/24 22:59:39;;;;;;;0.38;0.30;;;25.60;47.80;;;;;;5077283;28;20558;-64
2022/05/24 23:02:08;;;;;;;0.80;0.50;;;25.60;47.80;;;;;;5078049;28;20044;-64
2022/05/24 23:04:34;;;;;;;;;;;25.60;47.90;;;;;;5077552;28;20024;-64
2022/05/24 23:07:05;;;;;;;0.73;0.50;;;25.50;47.90;;;;;;5078047;28;19931;-63
2022/05/24 23:09:31;;;;;;;0.68;0.45;;;25.50;47.90;;;;;;5077069;28;20767;-62
2022/05/24 23:11:57;;;;;;;0.65;0.40;;;25.60;48.00;;;;;;5076991;28;20036;-61
2022/05/24 23:14:23;;;;;;;0.40;0.40;;;25.50;47.90;;;;;;5057687;28;20438;-61
2022/05/24 23:16:48;;;;;;;1.02;0.40;;;25.50;48.00;;;;;;5077521;28;20054;-61
2022/05/24 23:19:14;;;;;;;0.60;0.47;;;25.50;48.00;;;;;;5077294;28;20518;-61
2022/05/24 23:21:40;;;;;;;0.45;0.40;;;25.50;48.00;;;;;;5078588;28;20024;-62
2022/05/24 23:24:06;;;;;;;0.55;0.50;;;25.50;48.00;;;;;;5075698;28;20016;-62
2022/05/24 23:26:31;;;;;;;0.90;0.40;;;25.40;48.00;;;;;;5076674;28;20093;-60
2022/05/24 23:28:57;;;;;;;0.40;0.40;;;25.40;48.00;;;;;;5076495;28;20377;-60
2022/05/24 23:31:23;;;;;;;1.08;0.40;;;25.40;48.00;;;;;;5076466;28;20093;-62
2022/05/24 23:33:49;;;;;;;0.50;0.50;;;25.40;48.10;;;;;;5076896;28;20063;-62
2022/05/24 23:36:15;;;;;;;0.85;0.70;;;25.40;48.10;;;;;;5077326;28;20567;-61
2022/05/24 23:38:41;;;;;;;0.55;0.43;;;25.40;48.10;;;;;;5078278;28;20784;-64
2022/05/24 23:41:06;;;;;;;1.33;0.50;;;25.40;48.10;;;;;;5058023;28;20036;-62
2022/05/24 23:43:33;;;;;;;0.47;0.40;;;25.30;48.10;;;;;;5077099;28;20703;-65
2022/05/24 23:46:02;;;;;;;0.52;0.50;;;25.40;48.10;;;;;;5076671;28;20028;-61
2022/05/24 23:48:27;;;;;;;2.65;0.50;;;25.40;48.20;;;;;;5075636;28;20096;-64
2022/05/24 23:50:53;;;;;;;0.82;0.30;;;25.30;48.10;;;;;;5075879;28;20028;-62
2022/05/24 23:53:19;;;;;;;0.52;0.50;;;25.30;48.10;;;;;;5075476;28;20039;-62
2022/05/24 23:55:45;;;;;;;0.85;0.40;;;25.30;48.10;;;;;;5074080;28;20031;-61
2022/05/24 23:58:10;;;;;;;0.45;0.45;;;25.30;48.20;;;;;;5075672;28;20036;-61
